sensor_id;sensor_type;location;lat;lon;timestamp;pressure;altitude;pressure_sealevel;temperature;humidity
16255;BME280;8235;52.198;9.904;2023-05-22T00:01:35;100771.22;;;18.25;68.27
16255;BME280;8235;52.198;9.904;2023-05-22T00:04:02;100773.34;;;18.21;68.44
16255;BME280;8235;52.198;9.904;2023-05-22T00:06:29;100766.53;;;18.17;68.45
16255;BME280;8235;52.198;9.904;2023-05-22T00:08:58;100763.25;;;18.14;68.30
16255;BME280;8235;52.198;9.904;2023-05-22T00:11:26;100767.53;;;18.07;67.77
16255;BME280;8235;52.198;9.904;2023-05-22T00:13:53;100757.88;;;17.94;67.49
16255;BME280;8235;52.198;9.904;2023-05-22T00:16:19;100755.47;;;17.82;68.09
16255;BME280;8235;52.198;9.904;2023-05-22T00:18:46;100763.38;;;17.74;68.98
16255;BME280;8235;52.198;9.904;2023-05-22T00:21:13;100758.72;;;17.66;70.04
16255;BME280;8235;52.198;9.904;2023-05-22T00:23:41;100758.00;;;17.64;70.47
16255;BME280;8235;52.198;9.904;2023-05-22T00:26:13;100756.41;;;17.61;70.69
16255;BME280;8235;52.198;9.904;2023-05-22T00:28:42;100753.25;;;17.56;70.76
16255;BME280;8235;52.198;9.904;2023-05-22T00:31:14;100755.28;;;17.54;70.78
16255;BME280;8235;52.198;9.904;2023-05-22T00:33:41;100759.09;;;17.52;70.80
16255;BME280;8235;52.198;9.904;2023-05-22T00:36:08;100750.84;;;17.44;70.82
16255;BME280;8235;52.198;9.904;2023-05-22T00:38:34;100749.53;;;17.38;71.18
16255;BME280;8235;52.198;9.904;2023-05-22T00:41:03;100754.38;;;17.34;71.58
16255;BME280;8235;52.198;9.904;2023-05-22T00:43:30;100754.50;;;17.33;72.12
16255;BME280;8235;52.198;9.904;2023-05-22T00:45:58;100745.84;;;17.29;72.07
16255;BME280;8235;52.198;9.904;2023-05-22T00:48:25;100744.88;;;17.30;72.13
16255;BME280;8235;52.198;9.904;2023-05-22T00:50:53;100754.06;;;17.28;72.26
16255;BME280;8235;52.198;9.904;2023-05-22T00:53:23;100745.13;;;17.27;72.36
16255;BME280;8235;52.198;9.904;2023-05-22T00:55:52;100745.41;;;17.24;72.51
16255;BME280;8235;52.198;9.904;2023-05-22T00:58:19;100748.94;;;17.25;72.38
16255;BME280;8235;52.198;9.904;2023-05-22T01:00:46;100755.47;;;17.22;72.69
16255;BME280;8235;52.198;9.904;2023-05-22T01:03:14;100750.06;;;17.22;72.45
16255;BME280;8235;52.198;9.904;2023-05-22T01:05:42;100745.00;;;17.19;72.49
16255;BME280;8235;52.198;9.904;2023-05-22T01:08:08;100752.34;;;17.17;72.48
16255;BME280;8235;52.198;9.904;2023-05-22T01:10:36;100749.94;;;17.14;72.71
16255;BME280;8235;52.198;9.904;2023-05-22T01:13:08;100753.59;;;17.13;72.90
16255;BME280;8235;52.198;9.904;2023-05-22T01:15:43;100748.22;;;17.13;73.15
16255;BME280;8235;52.198;9.904;2023-05-22T01:18:18;100753.75;;;17.12;73.16
16255;BME280;8235;52.198;9.904;2023-05-22T01:20:51;100737.72;;;17.10;73.47
16255;BME280;8235;52.198;9.904;2023-05-22T01:23:48;100737.84;;;17.09;73.49
16255;BME280;8235;52.198;9.904;2023-05-22T01:26:31;100735.44;;;17.06;73.47
16255;BME280;8235;52.198;9.904;2023-05-22T01:29:26;100733.72;;;17.05;73.94
16255;BME280;8235;52.198;9.904;2023-05-22T01:31:56;100729.34;;;17.04;74.14
16255;BME280;8235;52.198;9.904;2023-05-22T01:34:25;100734.03;;;17.02;74.39
16255;BME280;8235;52.198;9.904;2023-05-22T01:36:54;100728.78;;;17.00;74.43
16255;BME280;8235;52.198;9.904;2023-05-22T01:39:21;100727.94;;;16.99;74.67
16255;BME280;8235;52.198;9.904;2023-05-22T01:41:50;100728.91;;;16.98;74.85
16255;BME280;8235;52.198;9.904;2023-05-22T01:44:16;100730.03;;;16.96;74.86
16255;BME280;8235;52.198;9.904;2023-05-22T01:46:42;100721.25;;;16.94;75.05
16255;BME280;8235;52.198;9.904;2023-05-22T01:49:10;100723.22;;;16.92;75.32
16255;BME280;8235;52.198;9.904;2023-05-22T01:51:44;100718.94;;;16.89;75.44
16255;BME280;8235;52.198;9.904;2023-05-22T01:54:16;100717.25;;;16.88;75.61
16255;BME280;8235;52.198;9.904;2023-05-22T01:56:47;100729.00;;;16.87;75.74
16255;BME280;8235;52.198;9.904;2023-05-22T01:59:24;100726.56;;;16.84;75.86
16255;BME280;8235;52.198;9.904;2023-05-22T02:01:52;100725.88;;;16.82;76.20
16255;BME280;8235;52.198;9.904;2023-05-22T02:04:22;100721.50;;;16.81;76.22
16255;BME280;8235;52.198;9.904;2023-05-22T02:06:50;100721.63;;;16.80;76.51
16255;BME280;8235;52.198;9.904;2023-05-22T02:09:18;100716.50;;;16.77;76.60
16255;BME280;8235;52.198;9.904;2023-05-22T02:11:47;100726.69;;;16.73;76.67
16255;BME280;8235;52.198;9.904;2023-05-22T02:14:14;100723.25;;;16.71;76.69
16255;BME280;8235;52.198;9.904;2023-05-22T02:16:42;100713.91;;;16.65;76.66
16255;BME280;8235;52.198;9.904;2023-05-22T02:19:12;100711.59;;;16.61;77.28
16255;BME280;8235;52.198;9.904;2023-05-22T02:21:40;100708.44;;;16.56;77.21
16255;BME280;8235;52.198;9.904;2023-05-22T02:24:07;100705.16;;;16.52;77.55
16255;BME280;8235;52.198;9.904;2023-05-22T02:26:34;100701.75;;;16.50;77.71
16255;BME280;8235;52.198;9.904;2023-05-22T02:29:01;100700.06;;;16.49;78.21
16255;BME280;8235;52.198;9.904;2023-05-22T02:31:28;100698.50;;;16.47;77.97
16255;BME280;8235;52.198;9.904;2023-05-22T02:33:55;100692.53;;;16.43;78.33
16255;BME280;8235;52.198;9.904;2023-05-22T02:36:21;100692.69;;;16.42;78.34
16255;BME280;8235;52.198;9.904;2023-05-22T02:38:49;100687.44;;;16.40;78.50
16255;BME280;8235;52.198;9.904;2023-05-22T02:41:16;100679.88;;;16.34;78.67
16255;BME280;8235;52.198;9.904;2023-05-22T02:43:43;100681.72;;;16.33;78.81
16255;BME280;8235;52.198;9.904;2023-05-22T02:46:12;100679.47;;;16.29;78.51
16255;BME280;8235;52.198;9.904;2023-05-22T02:48:39;100682.53;;;16.24;78.88
16255;BME280;8235;52.198;9.904;2023-05-22T02:51:06;100676.69;;;16.19;78.89
16255;BME280;8235;52.198;9.904;2023-05-22T02:53:33;100689.53;;;16.16;79.04
16255;BME280;8235;52.198;9.904;2023-05-22T02:56:06;100680.06;;;16.12;78.99
16255;BME280;8235;52.198;9.904;2023-05-22T02:58:32;100678.75;;;16.06;79.29
16255;BME280;8235;52.198;9.904;2023-05-22T03:00:59;100681.56;;;16.05;79.42
16255;BME280;8235;52.198;9.904;2023-05-22T03:03:27;100683.66;;;16.01;79.77
16255;BME280;8235;52.198;9.904;2023-05-22T03:05:55;100671.47;;;15.97;80.03
16255;BME280;8235;52.198;9.904;2023-05-22T03:08:23;100678.66;;;15.96;80.22
16255;BME280;8235;52.198;9.904;2023-05-22T03:10:50;100672.44;;;15.96;80.70
16255;BME280;8235;52.198;9.904;2023-05-22T03:13:18;100680.38;;;15.97;80.47
16255;BME280;8235;52.198;9.904;2023-05-22T03:15:44;100682.31;;;15.95;80.85
16255;BME280;8235;52.198;9.904;2023-05-22T03:18:11;100686.59;;;15.98;80.90
16255;BME280;8235;52.198;9.904;2023-05-22T03:20:37;100685.88;;;15.96;81.01
16255;BME280;8235;52.198;9.904;2023-05-22T03:23:04;100683.19;;;15.96;81.01
16255;BME280;8235;52.198;9.904;2023-05-22T03:25:31;100684.03;;;15.96;80.93
16255;BME280;8235;52.198;9.904;2023-05-22T03:27:57;100688.31;;;15.99;80.86
16255;BME280;8235;52.198;9.904;2023-05-22T03:30:25;100683.78;;;16.00;80.67
16255;BME280;8235;52.198;9.904;2023-05-22T03:32:51;100690.97;;;15.99;80.82
16255;BME280;8235;52.198;9.904;2023-05-22T03:35:18;100686.72;;;15.96;80.60
16255;BME280;8235;52.198;9.904;2023-05-22T03:37:45;100687.44;;;15.98;80.65
16255;BME280;8235;52.198;9.904;2023-05-22T03:40:12;100682.06;;;15.98;80.72
16255;BME280;8235;52.198;9.904;2023-05-22T03:42:38;100679.38;;;15.98;80.97
16255;BME280;8235;52.198;9.904;2023-05-22T03:45:06;100677.69;;;15.97;80.82
16255;BME280;8235;52.198;9.904;2023-05-22T03:47:34;100680.63;;;15.94;80.93
16255;BME280;8235;52.198;9.904;2023-05-22T03:50:00;100679.81;;;15.94;80.95
16255;BME280;8235;52.198;9.904;2023-05-22T03:52:27;100679.94;;;15.92;81.01
16255;BME280;8235;52.198;9.904;2023-05-22T03:54:53;100672.13;;;15.89;80.94
16255;BME280;8235;52.198;9.904;2023-05-22T03:57:20;100677.75;;;15.86;81.00
16255;BME280;8235;52.198;9.904;2023-05-22T03:59:46;100679.72;;;15.84;81.45
16255;BME280;8235;52.198;9.904;2023-05-22T04:02:13;100677.16;;;15.83;81.78
16255;BME280;8235;52.198;9.904;2023-05-22T04:04:42;100686.06;;;15.83;81.60
16255;BME280;8235;52.198;9.904;2023-05-22T04:07:10;100681.56;;;15.84;82.10
16255;BME280;8235;52.198;9.904;2023-05-22T04:09:37;100686.06;;;15.83;82.02
16255;BME280;8235;52.198;9.904;2023-05-22T04:12:05;100688.75;;;15.83;81.92
16255;BME280;8235;52.198;9.904;2023-05-22T04:14:32;100685.09;;;15.84;82.39
16255;BME280;8235;52.198;9.904;2023-05-22T04:16:58;100694.72;;;15.87;82.43
16255;BME280;8235;52.198;9.904;2023-05-22T04:19:25;100697.28;;;15.88;82.34
16255;BME280;8235;52.198;9.904;2023-05-22T04:21:56;100685.44;;;15.91;82.46
16255;BME280;8235;52.198;9.904;2023-05-22T04:24:23;100691.53;;;15.93;82.35
16255;BME280;8235;52.198;9.904;2023-05-22T04:26:49;100686.84;;;15.95;82.22
16255;BME280;8235;52.198;9.904;2023-05-22T04:29:16;100686.59;;;15.98;82.27
16255;BME280;8235;52.198;9.904;2023-05-22T04:31:43;100683.78;;;16.00;82.50
16255;BME280;8235;52.198;9.904;2023-05-22T04:34:11;100689.03;;;16.01;82.32
16255;BME280;8235;52.198;9.904;2023-05-22T04:36:38;100693.41;;;16.02;82.10
16255;BME280;8235;52.198;9.904;2023-05-22T04:39:05;100695.13;;;16.03;82.21
16255;BME280;8235;52.198;9.904;2023-05-22T04:41:32;100698.53;;;16.05;82.18
16255;BME280;8235;52.198;9.904;2023-05-22T04:43:59;100701.09;;;16.07;82.31
16255;BME280;8235;52.198;9.904;2023-05-22T04:46:28;100703.66;;;16.08;82.44
16255;BME280;8235;52.198;9.904;2023-05-22T04:48:54;100702.53;;;16.11;82.41
16255;BME280;8235;52.198;9.904;2023-05-22T04:51:22;100700.53;;;16.13;82.45
16255;BME280;8235;52.198;9.904;2023-05-22T04:53:49;100701.28;;;16.15;82.42
16255;BME280;8235;52.198;9.904;2023-05-22T04:56:17;100701.00;;;16.18;82.22
16255;BME280;8235;52.198;9.904;2023-05-22T04:58:44;100699.91;;;16.20;82.12
16255;BME280;8235;52.198;9.904;2023-05-22T05:01:12;100696.09;;;16.23;82.21
16255;BME280;8235;52.198;9.904;2023-05-22T05:03:40;100695.00;;;16.25;82.17
16255;BME280;8235;52.198;9.904;2023-05-22T05:06:07;100689.34;;;16.28;82.15
16255;BME280;8235;52.198;9.904;2023-05-22T05:08:33;100686.38;;;16.31;82.15
16255;BME280;8235;52.198;9.904;2023-05-22T05:11:00;100676.34;;;16.33;82.33
16255;BME280;8235;52.198;9.904;2023-05-22T05:13:28;100670.84;;;16.35;82.41
16255;BME280;8235;52.198;9.904;2023-05-22T05:15:56;100671.16;;;16.42;82.62
16255;BME280;8235;52.198;9.904;2023-05-22T05:18:22;100674.44;;;16.45;82.97
16255;BME280;8235;52.198;9.904;2023-05-22T05:20:49;100676.84;;;16.48;83.18
16255;BME280;8235;52.198;9.904;2023-05-22T05:23:16;100671.91;;;16.53;83.22
16255;BME280;8235;52.198;9.904;2023-05-22T05:25:42;100673.50;;;16.56;83.21
16255;BME280;8235;52.198;9.904;2023-05-22T05:28:10;100667.84;;;16.59;82.96
16255;BME280;8235;52.198;9.904;2023-05-22T05:30:39;100673.94;;;16.61;82.90
16255;BME280;8235;52.198;9.904;2023-05-22T05:33:05;100670.19;;;16.63;82.54
16255;BME280;8235;52.198;9.904;2023-05-22T05:35:32;100677.94;;;16.66;82.89
16255;BME280;8235;52.198;9.904;2023-05-22T05:37:59;100676.81;;;16.69;82.94
16255;BME280;8235;52.198;9.904;2023-05-22T05:40:25;100675.56;;;16.73;83.13
16255;BME280;8235;52.198;9.904;2023-05-22T05:42:52;100674.19;;;16.79;83.41
16255;BME280;8235;52.198;9.904;2023-05-22T05:45:19;100679.84;;;16.85;83.40
16255;BME280;8235;52.198;9.904;2023-05-22T05:47:46;100674.06;;;16.90;83.59
16255;BME280;8235;52.198;9.904;2023-05-22T05:50:13;100674.38;;;16.96;83.73
16255;BME280;8235;52.198;9.904;2023-05-22T05:52:40;100671.28;;;17.01;83.46
16255;BME280;8235;52.198;9.904;2023-05-22T05:55:07;100679.91;;;17.05;83.42
16255;BME280;8235;52.198;9.904;2023-05-22T05:57:34;100674.13;;;17.09;83.38
16255;BME280;8235;52.198;9.904;2023-05-22T06:00:01;100678.25;;;17.13;83.35
16255;BME280;8235;52.198;9.904;2023-05-22T06:02:29;100672.31;;;17.19;83.40
16255;BME280;8235;52.198;9.904;2023-05-22T06:04:57;100681.38;;;17.28;83.67
16255;BME280;8235;52.198;9.904;2023-05-22T06:07:23;100678.00;;;17.35;83.88
16255;BME280;8235;52.198;9.904;2023-05-22T06:09:50;100683.38;;;17.45;83.71
16255;BME280;8235;52.198;9.904;2023-05-22T06:12:16;100679.28;;;17.51;83.48
16255;BME280;8235;52.198;9.904;2023-05-22T06:14:43;100685.28;;;17.64;83.57
16255;BME280;8235;52.198;9.904;2023-05-22T06:17:09;100677.19;;;17.74;82.96
16255;BME280;8235;52.198;9.904;2023-05-22T06:19:36;100675.22;;;17.85;81.70
16255;BME280;8235;52.198;9.904;2023-05-22T06:22:04;100676.19;;;17.94;81.17
16255;BME280;8235;52.198;9.904;2023-05-22T06:24:31;100670.78;;;18.03;81.04
16255;BME280;8235;52.198;9.904;2023-05-22T06:27:00;100677.13;;;18.12;80.00
16255;BME280;8235;52.198;9.904;2023-05-22T06:29:26;100678.41;;;18.18;79.02
16255;BME280;8235;52.198;9.904;2023-05-22T06:31:53;100681.25;;;18.26;78.15
16255;BME280;8235;52.198;9.904;2023-05-22T06:34:19;100675.53;;;18.29;77.36
16255;BME280;8235;52.198;9.904;2023-05-22T06:36:47;100676.53;;;18.37;76.82
16255;BME280;8235;52.198;9.904;2023-05-22T06:39:16;100679.03;;;18.49;77.11
16255;BME280;8235;52.198;9.904;2023-05-22T06:41:42;100678.91;;;18.60;76.96
16255;BME280;8235;52.198;9.904;2023-05-22T06:44:09;100681.66;;;18.78;76.99
16255;BME280;8235;52.198;9.904;2023-05-22T06:46:36;100682.56;;;18.96;77.38
16255;BME280;8235;52.198;9.904;2023-05-22T06:49:03;100674.81;;;19.11;75.95
16255;BME280;8235;52.198;9.904;2023-05-22T06:51:29;100680.69;;;19.24;74.21
16255;BME280;8235;52.198;9.904;2023-05-22T06:53:56;100678.09;;;19.32;73.04
16255;BME280;8235;52.198;9.904;2023-05-22T06:56:24;100692.34;;;19.42;72.24
16255;BME280;8235;52.198;9.904;2023-05-22T06:58:51;100680.69;;;19.51;72.69
16255;BME280;8235;52.198;9.904;2023-05-22T07:01:17;100689.94;;;19.66;72.91
16255;BME280;8235;52.198;9.904;2023-05-22T07:03:44;100685.13;;;19.78;72.17
16255;BME280;8235;52.198;9.904;2023-05-22T07:06:10;100687.13;;;19.94;72.40
16255;BME280;8235;52.198;9.904;2023-05-22T07:08:37;100680.28;;;20.07;71.38
16255;BME280;8235;52.198;9.904;2023-05-22T07:11:04;100682.44;;;20.22;70.02
16255;BME280;8235;52.198;9.904;2023-05-22T07:13:33;100690.44;;;20.31;69.34
16255;BME280;8235;52.198;9.904;2023-05-22T07:16:00;100682.44;;;20.39;68.82
16255;BME280;8235;52.198;9.904;2023-05-22T07:18:27;100687.72;;;20.49;69.16
16255;BME280;8235;52.198;9.904;2023-05-22T07:20:53;100688.47;;;20.59;68.72
16255;BME280;8235;52.198;9.904;2023-05-22T07:23:20;100685.63;;;20.69;68.44
16255;BME280;8235;52.198;9.904;2023-05-22T07:25:46;100681.78;;;20.79;68.06
16255;BME280;8235;52.198;9.904;2023-05-22T07:28:13;100683.00;;;20.85;67.61
16255;BME280;8235;52.198;9.904;2023-05-22T07:30:41;100680.00;;;20.96;67.59
16255;BME280;8235;52.198;9.904;2023-05-22T07:33:07;100679.88;;;21.06;66.55
16255;BME280;8235;52.198;9.904;2023-05-22T07:35:34;100674.31;;;21.15;66.48
16255;BME280;8235;52.198;9.904;2023-05-22T07:38:00;100674.56;;;21.30;66.84
16255;BME280;8235;52.198;9.904;2023-05-22T07:40:28;100672.22;;;21.43;65.58
16255;BME280;8235;52.198;9.904;2023-05-22T07:42:54;100664.75;;;21.54;65.27
16255;BME280;8235;52.198;9.904;2023-05-22T07:45:21;100668.19;;;21.64;65.09
16255;BME280;8235;52.198;9.904;2023-05-22T07:47:48;100667.66;;;21.68;64.49
16255;BME280;8235;52.198;9.904;2023-05-22T07:50:15;100668.69;;;21.75;64.35
16255;BME280;8235;52.198;9.904;2023-05-22T07:52:42;100673.28;;;21.83;64.08
16255;BME280;8235;52.198;9.904;2023-05-22T07:55:09;100675.28;;;21.89;63.67
16255;BME280;8235;52.198;9.904;2023-05-22T07:57:37;100669.88;;;21.97;63.91
16255;BME280;8235;52.198;9.904;2023-05-22T08:00:04;100656.00;;;22.08;64.65
16255;BME280;8235;52.198;9.904;2023-05-22T08:02:41;100664.28;;;22.23;64.28
16255;BME280;8235;52.198;9.904;2023-05-22T08:05:09;100662.56;;;22.38;63.86
16255;BME280;8235;52.198;9.904;2023-05-22T08:07:36;100668.31;;;22.51;63.22
16255;BME280;8235;52.198;9.904;2023-05-22T08:10:05;100661.81;;;22.61;62.19
16255;BME280;8235;52.198;9.904;2023-05-22T08:12:32;100669.25;;;22.67;61.60
16255;BME280;8235;52.198;9.904;2023-05-22T08:14:58;100669.78;;;22.70;61.50
16255;BME280;8235;52.198;9.904;2023-05-22T08:17:25;100672.13;;;22.73;60.87
16255;BME280;8235;52.198;9.904;2023-05-22T08:19:51;100663.31;;;22.79;60.34
16255;BME280;8235;52.198;9.904;2023-05-22T08:22:19;100669.72;;;22.87;60.13
16255;BME280;8235;52.198;9.904;2023-05-22T08:24:45;100664.56;;;23.00;60.56
16255;BME280;8235;52.198;9.904;2023-05-22T08:27:12;100662.13;;;23.13;60.03
16255;BME280;8235;52.198;9.904;2023-05-22T08:29:38;100663.97;;;23.20;59.89
16255;BME280;8235;52.198;9.904;2023-05-22T08:32:05;100654.09;;;23.28;58.61
16255;BME280;8235;52.198;9.904;2023-05-22T08:34:32;100662.53;;;23.33;58.54
16255;BME280;8235;52.198;9.904;2023-05-22T08:36:59;100648.88;;;23.41;59.01
16255;BME280;8235;52.198;9.904;2023-05-22T08:39:27;100650.69;;;23.48;59.23
16255;BME280;8235;52.198;9.904;2023-05-22T08:41:55;100650.84;;;23.55;59.09
16255;BME280;8235;52.198;9.904;2023-05-22T08:44:22;100644.69;;;23.61;59.33
16255;BME280;8235;52.198;9.904;2023-05-22T08:46:50;100642.66;;;23.63;59.76
16255;BME280;8235;52.198;9.904;2023-05-22T08:49:19;100641.06;;;23.69;60.23
16255;BME280;8235;52.198;9.904;2023-05-22T08:51:47;100636.47;;;23.69;60.00
16255;BME280;8235;52.198;9.904;2023-05-22T08:54:20;100641.06;;;23.69;60.59
16255;BME280;8235;52.198;9.904;2023-05-22T08:56:48;100637.00;;;23.65;59.75
16255;BME280;8235;52.198;9.904;2023-05-22T08:59:18;100636.06;;;23.58;59.42
16255;BME280;8235;52.198;9.904;2023-05-22T09:01:45;100630.47;;;23.51;59.96
16255;BME280;8235;52.198;9.904;2023-05-22T09:04:12;100634.38;;;23.48;60.43
16255;BME280;8235;52.198;9.904;2023-05-22T09:06:39;100627.59;;;23.52;61.38
16255;BME280;8235;52.198;9.904;2023-05-22T09:09:05;100631.28;;;23.60;61.33
16255;BME280;8235;52.198;9.904;2023-05-22T09:11:32;100628.50;;;23.68;61.28
16255;BME280;8235;52.198;9.904;2023-05-22T09:14:07;100637.94;;;23.80;60.37
16255;BME280;8235;52.198;9.904;2023-05-22T09:16:42;100631.66;;;23.94;59.79
16255;BME280;8235;52.198;9.904;2023-05-22T09:19:10;100631.03;;;24.07;59.68
16255;BME280;8235;52.198;9.904;2023-05-22T09:21:37;100631.03;;;24.21;58.70
16255;BME280;8235;52.198;9.904;2023-05-22T09:24:07;100626.22;;;24.32;58.49
16255;BME280;8235;52.198;9.904;2023-05-22T09:26:34;100626.31;;;24.38;58.13
16255;BME280;8235;52.198;9.904;2023-05-22T09:29:01;100622.28;;;24.49;57.37
16255;BME280;8235;52.198;9.904;2023-05-22T09:31:29;100622.66;;;24.61;57.58
16255;BME280;8235;52.198;9.904;2023-05-22T09:33:56;100625.53;;;24.74;57.65
16255;BME280;8235;52.198;9.904;2023-05-22T09:36:29;100622.16;;;24.86;56.70
16255;BME280;8235;52.198;9.904;2023-05-22T09:38:58;100624.41;;;24.98;56.62
16255;BME280;8235;52.198;9.904;2023-05-22T09:41:26;100614.69;;;25.10;56.11
16255;BME280;8235;52.198;9.904;2023-05-22T09:43:54;100619.75;;;25.13;55.53
16255;BME280;8235;52.198;9.904;2023-05-22T09:46:21;100619.19;;;25.17;55.61
16255;BME280;8235;52.198;9.904;2023-05-22T09:48:51;100621.16;;;25.23;56.07
16255;BME280;8235;52.198;9.904;2023-05-22T09:51:20;100614.25;;;25.27;55.19
16255;BME280;8235;52.198;9.904;2023-05-22T09:53:48;100610.78;;;25.34;54.93
16255;BME280;8235;52.198;9.904;2023-05-22T09:56:17;100611.50;;;25.42;55.08
16255;BME280;8235;52.198;9.904;2023-05-22T09:58:44;100612.19;;;25.51;55.50
16255;BME280;8235;52.198;9.904;2023-05-22T10:01:13;100617.34;;;25.60;55.05
16255;BME280;8235;52.198;9.904;2023-05-22T10:03:41;100608.38;;;25.67;55.10
16255;BME280;8235;52.198;9.904;2023-05-22T10:06:10;100608.66;;;25.72;54.67
16255;BME280;8235;52.198;9.904;2023-05-22T10:08:40;100614.78;;;25.80;54.45
16255;BME280;8235;52.198;9.904;2023-05-22T10:11:10;100606.03;;;25.85;53.89
16255;BME280;8235;52.198;9.904;2023-05-22T10:13:36;100609.78;;;25.84;53.49
16255;BME280;8235;52.198;9.904;2023-05-22T10:16:04;100604.16;;;25.85;54.26
16255;BME280;8235;52.198;9.904;2023-05-22T10:18:31;100609.88;;;25.90;54.59
16255;BME280;8235;52.198;9.904;2023-05-22T10:20:59;100603.38;;;25.91;54.15
16255;BME280;8235;52.198;9.904;2023-05-22T10:23:28;100608.19;;;25.89;53.97
16255;BME280;8235;52.198;9.904;2023-05-22T10:25:56;100604.22;;;25.92;53.35
16255;BME280;8235;52.198;9.904;2023-05-22T10:28:25;100594.78;;;25.94;53.25
16255;BME280;8235;52.198;9.904;2023-05-22T10:30:57;100595.28;;;26.05;53.12
16255;BME280;8235;52.198;9.904;2023-05-22T10:33:28;100594.50;;;26.11;52.46
16255;BME280;8235;52.198;9.904;2023-05-22T10:36:01;100594.13;;;26.20;52.77
16255;BME280;8235;52.198;9.904;2023-05-22T10:38:55;100585.63;;;26.30;52.54
16255;BME280;8235;52.198;9.904;2023-05-22T10:41:25;100589.19;;;26.31;51.43
16255;BME280;8235;52.198;9.904;2023-05-22T10:43:55;100578.63;;;26.27;51.60
16255;BME280;8235;52.198;9.904;2023-05-22T10:46:21;100581.38;;;26.27;51.60
16255;BME280;8235;52.198;9.904;2023-05-22T10:48:53;100572.59;;;26.32;52.18
16255;BME280;8235;52.198;9.904;2023-05-22T10:51:20;100574.72;;;26.37;51.32
16255;BME280;8235;52.198;9.904;2023-05-22T10:53:52;100575.81;;;26.42;51.59
16255;BME280;8235;52.198;9.904;2023-05-22T10:56:19;100573.75;;;26.51;51.49
16255;BME280;8235;52.198;9.904;2023-05-22T10:58:55;100579.88;;;26.59;51.30
16255;BME280;8235;52.198;9.904;2023-05-22T11:01:24;100577.84;;;26.68;50.97
16255;BME280;8235;52.198;9.904;2023-05-22T11:03:51;100573.66;;;26.79;50.46
16255;BME280;8235;52.198;9.904;2023-05-22T11:06:33;100571.16;;;26.90;50.48
16255;BME280;8235;52.198;9.904;2023-05-22T11:12:16;100579.66;;;27.09;49.43
16255;BME280;8235;52.198;9.904;2023-05-22T11:14:53;100575.06;;;27.16;50.10
16255;BME280;8235;52.198;9.904;2023-05-22T11:17:21;100568.97;;;27.27;49.77
16255;BME280;8235;52.198;9.904;2023-05-22T11:19:56;100557.84;;;27.35;49.22
16255;BME280;8235;52.198;9.904;2023-05-22T11:22:29;100566.28;;;27.40;49.04
16255;BME280;8235;52.198;9.904;2023-05-22T11:24:56;100559.31;;;27.44;48.26
16255;BME280;8235;52.198;9.904;2023-05-22T11:27:23;100561.63;;;27.47;48.29
16255;BME280;8235;52.198;9.904;2023-05-22T11:29:50;100560.41;;;27.56;49.03
16255;BME280;8235;52.198;9.904;2023-05-22T11:32:17;100558.09;;;27.67;48.90
16255;BME280;8235;52.198;9.904;2023-05-22T11:34:45;100554.53;;;27.73;48.22
16255;BME280;8235;52.198;9.904;2023-05-22T11:37:14;100549.66;;;27.81;48.39
16255;BME280;8235;52.198;9.904;2023-05-22T11:39:43;100551.78;;;27.86;47.65
16255;BME280;8235;52.198;9.904;2023-05-22T11:42:17;100553.03;;;27.90;47.30
16255;BME280;8235;52.198;9.904;2023-05-22T11:44:43;100548.59;;;27.95;47.59
16255;BME280;8235;52.198;9.904;2023-05-22T11:47:10;100557.44;;;28.04;47.39
16255;BME280;8235;52.198;9.904;2023-05-22T11:49:36;100549.00;;;28.06;47.35
16255;BME280;8235;52.198;9.904;2023-05-22T11:52:05;100542.28;;;28.08;47.56
16255;BME280;8235;52.198;9.904;2023-05-22T11:54:31;100538.69;;;28.08;46.61
16255;BME280;8235;52.198;9.904;2023-05-22T11:56:58;100541.00;;;28.04;46.58
16255;BME280;8235;52.198;9.904;2023-05-22T11:59:26;100532.81;;;28.04;46.92
16255;BME280;8235;52.198;9.904;2023-05-22T12:01:52;100541.00;;;28.04;46.97
16255;BME280;8235;52.198;9.904;2023-05-22T12:04:19;100528.78;;;28.07;47.18
16255;BME280;8235;52.198;9.904;2023-05-22T12:06:45;100524.59;;;28.04;47.52
16255;BME280;8235;52.198;9.904;2023-05-22T12:09:12;100520.78;;;28.05;47.22
16255;BME280;8235;52.198;9.904;2023-05-22T12:11:38;100526.28;;;28.05;47.58
16255;BME280;8235;52.198;9.904;2023-05-22T12:14:05;100522.91;;;28.10;47.78
16255;BME280;8235;52.198;9.904;2023-05-22T12:16:34;100518.06;;;28.12;47.57
16255;BME280;8235;52.198;9.904;2023-05-22T12:19:03;100522.88;;;28.16;47.35
16255;BME280;8235;52.198;9.904;2023-05-22T12:21:30;100516.34;;;28.17;47.19
16255;BME280;8235;52.198;9.904;2023-05-22T12:23:57;100514.00;;;28.14;47.40
16255;BME280;8235;52.198;9.904;2023-05-22T12:26:23;100509.38;;;28.15;47.05
16255;BME280;8235;52.198;9.904;2023-05-22T12:28:51;100505.81;;;28.14;46.88
16255;BME280;8235;52.198;9.904;2023-05-22T12:31:21;100503.91;;;28.15;47.14
16255;BME280;8235;52.198;9.904;2023-05-22T12:33:52;100508.97;;;28.18;46.76
16255;BME280;8235;52.198;9.904;2023-05-22T12:36:18;100498.63;;;28.13;45.85
16255;BME280;8235;52.198;9.904;2023-05-22T12:38:45;100502.06;;;28.09;45.59
16255;BME280;8235;52.198;9.904;2023-05-22T12:41:12;100503.31;;;28.06;46.51
16255;BME280;8235;52.198;9.904;2023-05-22T12:43:38;100509.63;;;28.07;45.75
16255;BME280;8235;52.198;9.904;2023-05-22T12:46:04;100502.69;;;28.04;45.83
16255;BME280;8235;52.198;9.904;2023-05-22T12:48:31;100500.38;;;28.01;45.48
16255;BME280;8235;52.198;9.904;2023-05-22T12:50:59;100501.00;;;27.96;44.78
16255;BME280;8235;52.198;9.904;2023-05-22T12:53:25;100499.78;;;27.92;44.69
16255;BME280;8235;52.198;9.904;2023-05-22T12:55:52;100495.16;;;27.93;44.90
16255;BME280;8235;52.198;9.904;2023-05-22T12:58:18;100508.00;;;27.92;46.35
16255;BME280;8235;52.198;9.904;2023-05-22T13:00:45;100506.09;;;27.93;46.52
16255;BME280;8235;52.198;9.904;2023-05-22T13:03:12;100504.41;;;27.92;45.62
16255;BME280;8235;52.198;9.904;2023-05-22T13:05:39;100506.09;;;27.93;45.81
16255;BME280;8235;52.198;9.904;2023-05-22T13:08:07;100505.47;;;27.91;45.39